Time;durP1;ratioP1;P1;durP2;ratioP2;P2;SDS_P1;SDS_P2;PMS_P1;PMS_P2;Temp;Humidity;BMP_temperature;BMP_pressure;BME280_temperature;BME280_humidity;BME280_pressure;Samples;Min_cycle;Max_cycle;Signal;HPM_P1;HPM_P2
2023/12/17 00:02:21;;;;;;;4.72;2.13;;;;;;;;;;10362710;28;20088;-73
2023/12/17 00:07:25;;;;;;;3.33;2.17;;;;;;;;;;10360405;28;20511;-73
2023/12/17 00:12:29;;;;;;;5.40;2.20;;;;;;;;;;10360726;28;20042;-73
2023/12/17 00:17:32;;;;;;;5.47;2.85;;;;;;;;;;10363652;28;20423;-73
2023/12/17 00:22:36;;;;;;;4.43;2.20;;;;;;;;;;10366053;28;20117;-73
2023/12/17 00:27:42;;;;;;;4.50;2.38;;;;;;;;;;10367932;28;20049;-74
2023/12/17 00:32:45;;;;;;;7.78;3.22;;;;;;;;;;10363888;28;20053;-73
2023/12/17 00:37:48;;;;;;;5.72;3.03;;;;;;;;;;10366755;28;20132;-73
2023/12/17 00:42:53;;;;;;;3.95;2.53;;;;;;;;;;10370308;28;20540;-73
2023/12/17 00:47:56;;;;;;;4.88;2.75;;;;;;;;;;10364472;28;20060;-73
2023/12/17 00:52:59;;;;;;;3.47;2.33;;;;;;;;;;10369802;28;20069;-73
2023/12/17 00:58:04;;;;;;;6.22;2.47;;;;;;;;;;10340441;28;20053;-73
2023/12/17 01:03:07;;;;;;;4.13;2.10;;;;;;;;;;10366104;28;20441;-73
2023/12/17 01:08:10;;;;;;;5.03;2.28;;;;;;;;;;10363276;28;20077;-73
2023/12/17 01:13:15;;;;;;;7.45;2.60;;;;;;;;;;10352215;28;20042;-73
2023/12/17 01:18:18;;;;;;;5.57;2.83;;;;;;;;;;10347587;28;20048;-73
2023/12/17 01:23:22;;;;;;;5.18;2.30;;;;;;;;;;10346391;28;20145;-73
2023/12/17 01:28:26;;;;;;;3.70;2.33;;;;;;;;;;10366663;28;20508;-73
2023/12/17 01:33:30;;;;;;;5.43;2.30;;;;;;;;;;10362525;28;20061;-73
2023/12/17 01:38:33;;;;;;;5.18;2.60;;;;;;;;;;10351169;28;20100;-73
2023/12/17 01:43:37;;;;;;;4.93;2.65;;;;;;;;;;10360602;28;20480;-73
2023/12/17 01:48:42;;;;;;;4.95;2.72;;;;;;;;;;10362319;28;20191;-73
2023/12/17 01:53:45;;;;;;;5.90;3.45;;;;;;;;;;10364942;28;20091;-73
2023/12/17 01:58:50;;;;;;;6.95;3.72;;;;;;;;;;10362728;28;20040;-73
2023/12/17 02:03:53;;;;;;;4.97;2.58;;;;;;;;;;10364178;28;20054;-73
2023/12/17 02:08:57;;;;;;;5.72;3.00;;;;;;;;;;10363828;28;20141;-73
2023/12/17 02:14:02;;;;;;;3.13;2.47;;;;;;;;;;10360959;28;20046;-73
2023/12/17 02:19:05;;;;;;;5.53;3.13;;;;;;;;;;10364759;28;20406;-73
2023/12/17 02:24:09;;;;;;;3.85;2.42;;;;;;;;;;10364909;28;20108;-73
2023/12/17 02:29:13;;;;;;;3.42;2.40;;;;;;;;;;10360900;28;20349;-73
2023/12/17 02:34:17;;;;;;;3.60;2.33;;;;;;;;;;10349548;28;20688;-73
2023/12/17 02:39:22;;;;;;;3.25;1.90;;;;;;;;;;10364686;28;20126;-73
2023/12/17 02:44:25;;;;;;;3.03;2.00;;;;;;;;;;10360483;28;20070;-73
2023/12/17 02:49:29;;;;;;;3.08;2.20;;;;;;;;;;10361375;28;20067;-73
2023/12/17 02:54:33;;;;;;;3.47;2.40;;;;;;;;;;10364563;28;20042;-74
2023/12/17 02:59:37;;;;;;;3.22;1.98;;;;;;;;;;10367490;28;20618;-73
2023/12/17 03:04:40;;;;;;;2.67;1.70;;;;;;;;;;10371443;28;20045;-73
2023/12/17 03:09:44;;;;;;;3.40;2.35;;;;;;;;;;10365132;28;20036;-73
2023/12/17 03:14:48;;;;;;;4.35;2.75;;;;;;;;;;10365182;28;20530;-73
2023/12/17 03:19:51;;;;;;;4.13;2.10;;;;;;;;;;10357473;28;20380;-74
2023/12/17 03:24:56;;;;;;;5.07;2.15;;;;;;;;;;10363267;28;20136;-73
2023/12/17 03:29:59;;;;;;;2.50;1.80;;;;;;;;;;10363486;28;20046;-73
2023/12/17 03:35:02;;;;;;;3.85;2.00;;;;;;;;;;10355791;28;20384;-73
2023/12/17 03:40:09;;;;;;;3.05;1.70;;;;;;;;;;10363550;28;20126;-73
2023/12/17 03:45:12;;;;;;;2.55;1.70;;;;;;;;;;10360197;28;20063;-73
2023/12/17 03:50:16;;;;;;;2.70;1.77;;;;;;;;;;10362345;28;20136;-73
2023/12/17 03:55:21;;;;;;;4.25;2.47;;;;;;;;;;10362933;28;20050;-73
2023/12/17 04:00:24;;;;;;;4.28;2.05;;;;;;;;;;10362973;28;20038;-73
2023/12/17 04:05:28;;;;;;;1.70;1.48;;;;;;;;;;10362308;28;20589;-73
2023/12/17 04:10:32;;;;;;;3.63;1.92;;;;;;;;;;10359235;28;20053;-73
2023/12/17 04:15:35;;;;;;;3.03;1.67;;;;;;;;;;10344738;28;20422;-73
2023/12/17 04:20:39;;;;;;;3.83;2.70;;;;;;;;;;10360849;28;20056;-73
2023/12/17 04:25:44;;;;;;;3.00;2.40;;;;;;;;;;10362023;28;20133;-73
2023/12/17 04:30:47;;;;;;;2.17;1.65;;;;;;;;;;10361949;28;20030;-73
2023/12/17 04:35:50;;;;;;;2.70;1.88;;;;;;;;;;10362069;28;20042;-73
2023/12/17 04:40:55;;;;;;;2.65;1.80;;;;;;;;;;10359645;28;20049;-73
2023/12/17 04:45:58;;;;;;;1.98;1.73;;;;;;;;;;10349505;28;20484;-73
2023/12/17 04:51:01;;;;;;;3.15;1.98;;;;;;;;;;10352046;28;20049;-73
2023/12/17 04:56:07;;;;;;;2.70;2.08;;;;;;;;;;10345108;28;20492;-73
2023/12/17 05:01:10;;;;;;;3.10;1.80;;;;;;;;;;10362602;28;20050;-73
2023/12/17 05:06:13;;;;;;;2.90;2.10;;;;;;;;;;10367383;28;20292;-73
2023/12/17 05:11:18;;;;;;;2.10;1.80;;;;;;;;;;10356769;28;20073;-73
2023/12/17 05:16:21;;;;;;;3.38;2.33;;;;;;;;;;10366472;28;20049;-73
2023/12/17 05:21:24;;;;;;;2.88;2.03;;;;;;;;;;10357136;28;20042;-73
2023/12/17 05:26:29;;;;;;;2.08;1.80;;;;;;;;;;10358752;28;20042;-73
2023/12/17 05:31:32;;;;;;;3.05;2.00;;;;;;;;;;10354605;28;20052;-73
2023/12/17 05:36:36;;;;;;;1.73;1.50;;;;;;;;;;10363703;28;20559;-73
2023/12/17 05:41:40;;;;;;;2.13;1.63;;;;;;;;;;10356619;28;20048;-73
2023/12/17 05:46:44;;;;;;;1.85;1.65;;;;;;;;;;10346525;28;20057;-73
2023/12/17 05:51:48;;;;;;;2.88;2.03;;;;;;;;;;10360364;28;20049;-73
2023/12/17 05:56:53;;;;;;;3.10;1.70;;;;;;;;;;10371219;23;20053;-73
2023/12/17 06:01:57;;;;;;;1.73;1.30;;;;;;;;;;10331756;28;20119;-73
2023/12/17 06:07:00;;;;;;;2.58;2.30;;;;;;;;;;10334749;28;20276;-73
2023/12/17 06:12:05;;;;;;;2.33;1.60;;;;;;;;;;10333713;28;20482;-73
2023/12/17 06:17:08;;;;;;;1.63;1.33;;;;;;;;;;10312843;28;20077;-73
2023/12/17 06:22:15;;;;;;;1.80;1.60;;;;;;;;;;10327778;28;20130;-73
2023/12/17 06:27:20;;;;;;;2.25;1.88;;;;;;;;;;10321233;28;20060;-73
2023/12/17 06:32:23;;;;;;;2.50;2.03;;;;;;;;;;10341904;28;20125;-73
2023/12/17 06:37:27;;;;;;;3.13;1.90;;;;;;;;;;10324075;28;20617;-73
2023/12/17 06:42:31;;;;;;;1.85;1.33;;;;;;;;;;10339464;28;20042;-73
2023/12/17 06:47:34;;;;;;;1.83;1.30;;;;;;;;;;10327303;28;20399;-73
2023/12/17 06:52:38;;;;;;;2.25;1.67;;;;;;;;;;10336182;28;20133;-73
2023/12/17 06:57:47;;;;;;;1.83;1.40;;;;;;;;;;10328913;28;20082;-73
2023/12/17 07:02:50;;;;;;;1.92;1.35;;;;;;;;;;10334147;28;20524;-73
2023/12/17 07:07:53;;;;;;;2.75;1.75;;;;;;;;;;10332648;28;20124;-73
2023/12/17 07:12:58;;;;;;;1.65;1.42;;;;;;;;;;10327422;28;20050;-73
2023/12/17 07:18:01;;;;;;;1.63;1.50;;;;;;;;;;10333611;28;20050;-73
2023/12/17 07:23:05;;;;;;;2.50;1.75;;;;;;;;;;10330200;28;20130;-73
2023/12/17 07:28:09;;;;;;;3.38;1.55;;;;;;;;;;10324808;28;20042;-73
2023/12/17 07:33:12;;;;;;;2.90;1.50;;;;;;;;;;10313926;28;20045;-73
2023/12/17 07:38:16;;;;;;;4.38;2.00;;;;;;;;;;10316475;28;20046;-73
2023/12/17 07:43:20;;;;;;;1.85;1.17;;;;;;;;;;10334774;28;20039;-73
2023/12/17 07:48:24;;;;;;;2.45;1.65;;;;;;;;;;10331524;28;20057;-73
2023/12/17 07:53:27;;;;;;;1.98;1.35;;;;;;;;;;10325550;28;20050;-73
2023/12/17 07:58:32;;;;;;;2.95;1.88;;;;;;;;;;10333606;28;20081;-73
2023/12/17 08:03:35;;;;;;;1.88;1.52;;;;;;;;;;10331394;28;20053;-74
2023/12/17 08:08:38;;;;;;;2.92;1.88;;;;;;;;;;10340387;28;20419;-74
2023/12/17 08:13:43;;;;;;;1.98;1.52;;;;;;;;;;10321530;28;20054;-73
2023/12/17 08:18:46;;;;;;;3.15;2.22;;;;;;;;;;10318914;28;20129;-74
2023/12/17 08:23:49;;;;;;;3.42;2.22;;;;;;;;;;10322006;28;20031;-73
2023/12/17 08:28:54;;;;;;;3.80;2.30;;;;;;;;;;10320496;28;20062;-74
2023/12/17 08:33:58;;;;;;;4.93;2.70;;;;;;;;;;10318433;28;20046;-74
2023/12/17 08:39:01;;;;;;;3.78;2.60;;;;;;;;;;10327393;28;20046;-74
2023/12/17 08:44:05;;;;;;;2.75;2.03;;;;;;;;;;10330392;28;20134;-73
2023/12/17 08:49:09;;;;;;;3.67;2.30;;;;;;;;;;10325029;28;20069;-74
2023/12/17 08:54:13;;;;;;;2.92;2.20;;;;;;;;;;10326200;28;20702;-73
2023/12/17 08:59:17;;;;;;;3.42;2.42;;;;;;;;;;10345881;23;20137;-73
2023/12/17 09:04:21;;;;;;;3.63;2.30;;;;;;;;;;10366052;28;20108;-73
2023/12/17 09:09:24;;;;;;;2.60;1.88;;;;;;;;;;10338191;28;20042;-73
2023/12/17 09:14:29;;;;;;;2.15;1.83;;;;;;;;;;10327944;28;20137;-74
2023/12/17 09:19:32;;;;;;;2.40;1.70;;;;;;;;;;10317261;28;20057;-74
2023/12/17 09:24:36;;;;;;;1.85;1.38;;;;;;;;;;10316736;28;20122;-74
2023/12/17 09:29:40;;;;;;;2.08;1.45;;;;;;;;;;10323636;28;20575;-74
2023/12/17 09:34:44;;;;;;;3.10;1.83;;;;;;;;;;10317958;28;20038;-74
2023/12/17 09:39:47;;;;;;;2.78;1.60;;;;;;;;;;10319094;28;20065;-74
2023/12/17 09:44:52;;;;;;;2.40;1.48;;;;;;;;;;10332738;28;20507;-74
2023/12/17 09:49:55;;;;;;;2.50;1.60;;;;;;;;;;10336762;28;20046;-74
2023/12/17 09:55:03;;;;;;;2.50;1.73;;;;;;;;;;10323445;28;20030;-74
2023/12/17 10:00:11;;;;;;;3.45;1.55;;;;;;;;;;10330075;28;20050;-74
2023/12/17 10:05:15;;;;;;;3.13;2.05;;;;;;;;;;10306248;28;20051;-74
2023/12/17 10:10:19;;;;;;;5.30;1.90;;;;;;;;;;10330460;28;20074;-74
2023/12/17 10:15:24;;;;;;;2.90;1.65;;;;;;;;;;10327854;28;20046;-74
2023/12/17 10:20:27;;;;;;;5.43;1.77;;;;;;;;;;10303491;28;20487;-74
2023/12/17 10:25:31;;;;;;;3.60;1.98;;;;;;;;;;10323953;28;20046;-74
2023/12/17 10:30:37;;;;;;;3.38;1.83;;;;;;;;;;10343016;28;20454;-74
2023/12/17 10:35:41;;;;;;;4.28;2.20;;;;;;;;;;10350904;28;20038;-74
2023/12/17 10:40:45;;;;;;;3.55;1.63;;;;;;;;;;10334798;28;20517;-74
2023/12/17 10:45:52;;;;;;;3.33;2.00;;;;;;;;;;10346876;28;20056;-74
2023/12/17 10:50:57;;;;;;;3.72;1.90;;;;;;;;;;10344399;28;20406;-74
2023/12/17 10:56:01;;;;;;;2.15;1.58;;;;;;;;;;10351232;28;20450;-74
2023/12/17 11:01:06;;;;;;;4.25;1.60;;;;;;;;;;10350104;28;20475;-74
2023/12/17 11:06:10;;;;;;;5.55;2.08;;;;;;;;;;10313606;28;20060;-74
2023/12/17 11:11:13;;;;;;;2.75;1.17;;;;;;;;;;10336593;28;20039;-74
2023/12/17 11:16:25;;;;;;;3.42;1.58;;;;;;;;;;10328170;28;20595;-74
2023/12/17 11:21:29;;;;;;;2.90;1.40;;;;;;;;;;10294303;28;20041;-74
2023/12/17 11:26:40;;;;;;;5.00;1.45;;;;;;;;;;10341452;28;20053;-74
2023/12/17 11:31:45;;;;;;;2.33;1.20;;;;;;;;;;10357445;28;20057;-74
2023/12/17 11:36:49;;;;;;;2.58;1.00;;;;;;;;;;10328141;28;20051;-74
2023/12/17 11:41:52;;;;;;;4.53;1.10;;;;;;;;;;10342715;28;20074;-74
2023/12/17 11:46:57;;;;;;;5.85;2.00;;;;;;;;;;10337725;28;20085;-74
2023/12/17 11:52:11;;;;;;;3.70;1.45;;;;;;;;;;10343642;28;20137;-74
2023/12/17 11:57:21;;;;;;;4.90;1.25;;;;;;;;;;10296171;23;20043;-75
2023/12/17 12:02:29;;;;;;;2.72;1.10;;;;;;;;;;10265270;28;20082;-75
2023/12/17 12:07:33;;;;;;;2.78;1.15;;;;;;;;;;10265037;28;20113;-74
2023/12/17 12:12:36;;;;;;;2.83;1.10;;;;;;;;;;10269339;28;20043;-74
2023/12/17 12:17:43;;;;;;;1.65;0.90;;;;;;;;;;10269826;28;20850;-75
2023/12/17 12:22:46;;;;;;;;;;;;;;;;;;10280260;28;20548;-75
2023/12/17 12:27:50;;;;;;;1.80;1.00;;;;;;;;;;10278886;28;19926;-75
2023/12/17 12:32:55;;;;;;;5.00;1.30;;;;;;;;;;10282822;28;20047;-75
2023/12/17 12:37:59;;;;;;;11.85;1.80;;;;;;;;;;10257774;28;20055;-74
2023/12/17 12:43:03;;;;;;;5.13;2.05;;;;;;;;;;10251453;28;20067;-75
2023/12/17 12:48:16;;;;;;;7.25;1.88;;;;;;;;;;10251929;28;20057;-75
2023/12/17 12:53:21;;;;;;;2.88;1.13;;;;;;;;;;10256778;28;20050;-74
2023/12/17 12:58:27;;;;;;;2.72;1.38;;;;;;;;;;10250590;28;20902;-75
2023/12/17 13:03:32;;;;;;;2.33;1.05;;;;;;;;;;10258218;28;20034;-74
2023/12/17 13:08:35;;;;;;;2.90;1.00;;;;;;;;;;10275938;28;20038;-75
2023/12/17 13:13:38;;;;;;;1.70;0.90;;;;;;;;;;10270538;28;20051;-75
2023/12/17 13:18:43;;;;;;;4.20;1.23;;;;;;;;;;10278330;28;20058;-74
2023/12/17 13:23:49;;;;;;;4.22;1.45;;;;;;;;;;10278483;28;20810;-74
2023/12/17 13:28:54;;;;;;;;;;;;;;;;;;10278606;28;20065;-75
2023/12/17 13:33:58;;;;;;;3.38;0.95;;;;;;;;;;10255466;28;20548;-75
2023/12/17 13:39:04;;;;;;;2.65;1.08;;;;;;;;;;10255452;28;20102;-75
2023/12/17 13:44:07;;;;;;;2.90;1.37;;;;;;;;;;10259006;28;20047;-75
2023/12/17 13:49:12;;;;;;;2.10;1.20;;;;;;;;;;10260143;28;20142;-75
2023/12/17 13:54:15;;;;;;;3.10;0.70;;;;;;;;;;10255734;28;20053;-75
2023/12/17 13:59:19;;;;;;;0.60;0.55;;;;;;;;;;10267550;28;20090;-74
2023/12/17 14:04:24;;;;;;;1.40;0.90;;;;;;;;;;10270462;28;20054;-75
2023/12/17 14:09:28;;;;;;;1.13;0.87;;;;;;;;;;10265193;28;20123;-75
2023/12/17 14:14:33;;;;;;;1.92;0.88;;;;;;;;;;10264029;28;20386;-75
2023/12/17 14:19:38;;;;;;;2.50;0.90;;;;;;;;;;10262818;28;20047;-75
2023/12/17 14:24:41;;;;;;;1.88;1.00;;;;;;;;;;10273029;28;20057;-74
2023/12/17 14:29:46;;;;;;;2.35;1.20;;;;;;;;;;10265353;28;20043;-75
2023/12/17 14:34:51;;;;;;;2.72;1.20;;;;;;;;;;10251788;28;20050;-74
2023/12/17 14:39:54;;;;;;;4.00;1.48;;;;;;;;;;10265839;28;20375;-74
2023/12/17 14:44:59;;;;;;;2.28;1.10;;;;;;;;;;10268740;28;20042;-74
2023/12/17 14:50:05;;;;;;;1.33;0.90;;;;;;;;;;10263026;28;20530;-74
2023/12/17 14:55:09;;;;;;;5.97;1.00;;;;;;;;;;10267087;28;20496;-74
2023/12/17 15:00:13;;;;;;;2.92;1.10;;;;;;;;;;10262703;28;20102;-75
2023/12/17 15:05:18;;;;;;;2.97;1.05;;;;;;;;;;10265151;28;20039;-75
2023/12/17 15:10:21;;;;;;;4.53;1.30;;;;;;;;;;10268907;28;20063;-75
2023/12/17 15:15:25;;;;;;;3.72;1.63;;;;;;;;;;10251705;28;20051;-74
2023/12/17 15:20:29;;;;;;;6.10;1.60;;;;;;;;;;10251188;28;20060;-75
2023/12/17 15:25:33;;;;;;;7.18;3.72;;;;;;;;;;10247977;28;20043;-75
2023/12/17 15:30:37;;;;;;;6.55;3.15;;;;;;;;;;10266935;28;20539;-75
2023/12/17 15:35:42;;;;;;;5.28;2.75;;;;;;;;;;10256271;28;20043;-74
2023/12/17 15:40:45;;;;;;;3.72;2.40;;;;;;;;;;10265709;28;20451;-74
2023/12/17 15:45:51;;;;;;;3.08;1.98;;;;;;;;;;10261615;28;20039;-74
2023/12/17 15:50:57;;;;;;;3.83;2.50;;;;;;;;;;10276153;28;20047;-74
2023/12/17 15:56:00;;;;;;;;;;;;;;;;;;10266157;28;20520;-75
2023/12/17 16:01:04;;;;;;;6.15;3.38;;;;;;;;;;10258421;28;19952;-75
2023/12/17 16:06:10;;;;;;;6.45;2.83;;;;;;;;;;10267778;28;20039;-75
2023/12/17 16:11:14;;;;;;;4.95;2.95;;;;;;;;;;10253699;28;20122;-75
2023/12/17 16:16:21;;;;;;;5.80;2.95;;;;;;;;;;10249104;28;20055;-75
2023/12/17 16:21:26;;;;;;;5.10;2.97;;;;;;;;;;10250342;28;20555;-74
2023/12/17 16:26:30;;;;;;;3.80;2.50;;;;;;;;;;10247839;28;20468;-74
2023/12/17 16:31:33;;;;;;;4.00;2.17;;;;;;;;;;10253735;28;20039;-74
2023/12/17 16:36:41;;;;;;;3.75;1.80;;;;;;;;;;10259090;28;20039;-75
2023/12/17 16:41:50;;;;;;;3.70;2.25;;;;;;;;;;10259595;28;20055;-75
2023/12/17 16:46:53;;;;;;;4.65;2.08;;;;;;;;;;10247481;28;20058;-75
2023/12/17 16:52:00;;;;;;;4.05;2.45;;;;;;;;;;10258857;28;20599;-75
2023/12/17 16:57:04;;;;;;;5.35;3.05;;;;;;;;;;10259984;28;20055;-75
2023/12/17 17:02:08;;;;;;;5.93;3.03;;;;;;;;;;10255885;28;20105;-75
2023/12/17 17:07:15;;;;;;;5.03;2.28;;;;;;;;;;10251127;28;20126;-74
2023/12/17 17:12:19;;;;;;;4.57;2.33;;;;;;;;;;10260369;28;20055;-75
2023/12/17 17:17:22;;;;;;;3.90;2.17;;;;;;;;;;10251189;28;20043;-75
2023/12/17 17:22:27;;;;;;;6.07;2.92;;;;;;;;;;10252864;28;20051;-74
2023/12/17 17:27:30;;;;;;;5.32;2.58;;;;;;;;;;10253964;28;20055;-75
2023/12/17 17:32:34;;;;;;;4.40;3.00;;;;;;;;;;10272871;28;20046;-75
2023/12/17 17:37:39;;;;;;;5.22;3.13;;;;;;;;;;10260871;28;20040;-74
2023/12/17 17:42:42;;;;;;;4.38;2.65;;;;;;;;;;10274620;28;20094;-75
2023/12/17 17:47:46;;;;;;;3.10;1.98;;;;;;;;;;10277957;28;20101;-75
2023/12/17 17:52:51;;;;;;;2.58;2.00;;;;;;;;;;10262402;28;20053;-74
2023/12/17 17:57:54;;;;;;;2.75;1.80;;;;;;;;;;10368458;23;20120;-74
2023/12/17 18:02:58;;;;;;;2.90;1.80;;;;;;;;;;10369309;28;20128;-74
2023/12/17 18:08:03;;;;;;;3.38;2.45;;;;;;;;;;10363216;28;20042;-74
2023/12/17 18:13:06;;;;;;;3.25;2.60;;;;;;;;;;10367781;28;20046;-74
2023/12/17 18:18:10;;;;;;;3.65;2.78;;;;;;;;;;10362757;28;20129;-74
2023/12/17 18:23:14;;;;;;;3.17;2.70;;;;;;;;;;10359813;28;20038;-74
2023/12/17 18:28:18;;;;;;;3.08;2.42;;;;;;;;;;10363726;28;20130;-74
2023/12/17 18:33:21;;;;;;;3.25;2.28;;;;;;;;;;10359450;28;20038;-74
2023/12/17 18:38:25;;;;;;;3.70;2.38;;;;;;;;;;10364828;28;20520;-74
2023/12/17 18:43:29;;;;;;;2.80;2.10;;;;;;;;;;10364679;28;20425;-74
2023/12/17 18:48:32;;;;;;;5.35;3.17;;;;;;;;;;10356685;28;20128;-74
2023/12/17 18:53:38;;;;;;;6.18;3.90;;;;;;;;;;10357118;28;20520;-74
2023/12/17 18:58:42;;;;;;;6.65;4.15;;;;;;;;;;10357831;28;20065;-74
2023/12/17 19:03:45;;;;;;;6.10;3.78;;;;;;;;;;10352319;28;20084;-74
2023/12/17 19:08:50;;;;;;;8.68;4.53;;;;;;;;;;10361891;28;20601;-74
2023/12/17 19:13:53;;;;;;;8.95;3.85;;;;;;;;;;10354963;28;20073;-74
2023/12/17 19:18:56;;;;;;;5.60;3.60;;;;;;;;;;10363420;28;20042;-74
2023/12/17 19:24:01;;;;;;;4.15;2.80;;;;;;;;;;10350944;28;22104;-74
2023/12/17 19:29:04;;;;;;;4.72;2.63;;;;;;;;;;10363909;28;20044;-74
2023/12/17 19:34:07;;;;;;;4.63;2.47;;;;;;;;;;10361575;28;20053;-74
2023/12/17 19:39:12;;;;;;;4.45;2.08;;;;;;;;;;10360476;28;20069;-74
2023/12/17 19:44:15;;;;;;;3.47;2.10;;;;;;;;;;10361517;28;20044;-74
2023/12/17 19:49:18;;;;;;;4.07;2.42;;;;;;;;;;10364917;28;20418;-74
2023/12/17 19:54:23;;;;;;;3.15;2.05;;;;;;;;;;10360691;28;20549;-74
2023/12/17 19:59:26;;;;;;;2.70;1.90;;;;;;;;;;10358300;28;20053;-74
2023/12/17 20:04:29;;;;;;;4.10;2.17;;;;;;;;;;10363379;28;20060;-74
2023/12/17 20:09:35;;;;;;;4.00;2.28;;;;;;;;;;10360655;28;20046;-74
2023/12/17 20:14:39;;;;;;;3.30;2.45;;;;;;;;;;10358965;28;20073;-74
2023/12/17 20:19:42;;;;;;;4.05;2.28;;;;;;;;;;10360845;28;20045;-74
2023/12/17 20:24:47;;;;;;;3.05;2.50;;;;;;;;;;10360489;28;20061;-74
2023/12/17 20:29:50;;;;;;;3.45;2.60;;;;;;;;;;10360012;28;20117;-74
2023/12/17 20:34:53;;;;;;;2.88;2.35;;;;;;;;;;10364458;28;20049;-74
2023/12/17 20:39:58;;;;;;;4.25;2.90;;;;;;;;;;10365447;28;20043;-74
2023/12/17 20:45:02;;;;;;;4.90;3.13;;;;;;;;;;10380732;28;20124;-74
2023/12/17 20:50:07;;;;;;;4.78;3.08;;;;;;;;;;10373311;28;20065;-74
2023/12/17 20:55:12;;;;;;;5.22;3.30;;;;;;;;;;10384940;28;20049;-74
2023/12/17 21:00:16;;;;;;;6.43;3.60;;;;;;;;;;10376863;28;20048;-74
2023/12/17 21:05:20;;;;;;;5.35;3.50;;;;;;;;;;10371790;28;20061;-74
2023/12/17 21:10:24;;;;;;;4.57;3.25;;;;;;;;;;10371358;28;20113;-74
2023/12/17 21:15:28;;;;;;;4.35;3.08;;;;;;;;;;10374306;28;20714;-74
2023/12/17 21:20:32;;;;;;;5.80;3.05;;;;;;;;;;10378032;28;20054;-74
2023/12/17 21:25:36;;;;;;;4.38;2.85;;;;;;;;;;10371252;28;20125;-74
2023/12/17 21:30:40;;;;;;;4.65;2.78;;;;;;;;;;10365378;28;20125;-74
2023/12/17 21:35:43;;;;;;;3.53;2.63;;;;;;;;;;10364842;28;20046;-74
2023/12/17 21:40:47;;;;;;;3.45;2.50;;;;;;;;;;10374961;28;20365;-74
2023/12/17 21:45:51;;;;;;;2.85;2.20;;;;;;;;;;10370359;28;20138;-74
2023/12/17 21:50:56;;;;;;;3.63;2.55;;;;;;;;;;10373211;28;20056;-74
2023/12/17 21:56:01;;;;;;;3.70;2.58;;;;;;;;;;10377133;28;20426;-74
2023/12/17 22:01:04;;;;;;;5.63;3.55;;;;;;;;;;10369079;28;20056;-74
2023/12/17 22:06:07;;;;;;;6.45;4.13;;;;;;;;;;10371124;28;20080;-74
2023/12/17 22:11:13;;;;;;;7.30;4.57;;;;;;;;;;10368110;28;20046;-74
2023/12/17 22:16:16;;;;;;;7.85;3.83;;;;;;;;;;10368787;28;20056;-74
2023/12/17 22:21:20;;;;;;;7.55;4.50;;;;;;;;;;10370334;28;20614;-74
2023/12/17 22:26:25;;;;;;;10.18;5.43;;;;;;;;;;10374369;28;20058;-74
2023/12/17 22:31:29;;;;;;;;;;;;;;;;;;10367289;28;20041;-74
2023/12/17 22:36:32;;;;;;;5.38;3.80;;;;;;;;;;10372387;28;20406;-74
2023/12/17 22:41:43;;;;;;;6.25;3.65;;;;;;;;;;10360497;28;20046;-74
2023/12/17 22:46:46;;;;;;;7.38;4.10;;;;;;;;;;10363183;28;20044;-74
2023/12/17 22:51:49;;;;;;;6.07;3.75;;;;;;;;;;10359100;28;20582;-74
2023/12/17 22:56:54;;;;;;;4.75;3.20;;;;;;;;;;10354521;28;20048;-74
2023/12/17 23:01:57;;;;;;;4.72;2.80;;;;;;;;;;10361148;28;20096;-74
2023/12/17 23:07:00;;;;;;;3.45;2.58;;;;;;;;;;10359852;28;20140;-73
2023/12/17 23:12:05;;;;;;;3.33;2.63;;;;;;;;;;10355457;28;20057;-74
2023/12/17 23:17:09;;;;;;;4.35;2.95;;;;;;;;;;10360955;28;20042;-74
2023/12/17 23:22:12;;;;;;;5.63;3.10;;;;;;;;;;10361559;28;20042;-74
2023/12/17 23:27:16;;;;;;;5.97;3.38;;;;;;;;;;10363395;28;20046;-74
2023/12/17 23:32:20;;;;;;;6.25;3.85;;;;;;;;;;10362897;28;20099;-74
2023/12/17 23:37:24;;;;;;;6.90;3.95;;;;;;;;;;10358521;28;20503;-74
2023/12/17 23:42:28;;;;;;;4.97;3.30;;;;;;;;;;10360780;28;20045;-74
2023/12/17 23:47:32;;;;;;;5.85;3.42;;;;;;;;;;10352926;28;20049;-74
2023/12/17 23:52:36;;;;;;;3.72;2.60;;;;;;;;;;10359158;28;20429;-74
2023/12/17 23:57:40;;;;;;;4.32;2.70;;;;;;;;;;10355656;23;20054;-75
